createdAt,value
2023-02-01T00:00:18.000Z,0
2023-02-01T00:01:35.234Z,0
2023-02-01T00:02:51.000Z,0
2023-02-01T00:04:07.000Z,0
2023-02-01T00:05:23.000Z,0
2023-02-01T00:06:40.000Z,0
2023-02-01T00:07:56.000Z,0
2023-02-01T00:09:12.000Z,0
2023-02-01T00:10:29.000Z,0
2023-02-01T00:11:45.000Z,0
2023-02-01T00:13:00.000Z,0
2023-02-01T00:14:17.147Z,0
2023-02-01T00:15:33.000Z,0
2023-02-01T00:16:49.000Z,0
2023-02-01T00:18:05.000Z,0
2023-02-01T00:19:22.000Z,0
2023-02-01T00:20:38.000Z,0
2023-02-01T00:21:54.000Z,0
2023-02-01T00:23:10.000Z,0
2023-02-01T00:24:27.000Z,0
2023-02-01T00:25:43.000Z,0
2023-02-01T00:26:59.000Z,0
2023-02-01T00:28:16.000Z,0
2023-02-01T00:29:31.000Z,0
2023-02-01T00:30:47.000Z,0
2023-02-01T00:32:03.000Z,0
2023-02-01T00:33:20.000Z,0
2023-02-01T00:34:36.000Z,0
2023-02-01T00:35:52.000Z,0
2023-02-01T00:37:09.000Z,0
2023-02-01T00:38:25.000Z,0
2023-02-01T00:39:41.925Z,0
2023-02-01T00:40:57.000Z,0
2023-02-01T00:42:14.000Z,0
2023-02-01T00:43:30.000Z,0
2023-02-01T00:44:46.000Z,0
2023-02-01T00:46:02.000Z,0
2023-02-01T00:47:18.000Z,0
2023-02-01T00:48:34.942Z,0
2023-02-01T00:49:50.000Z,0
2023-02-01T00:51:07.000Z,0
2023-02-01T00:52:23.819Z,0
2023-02-01T00:53:39.000Z,0
2023-02-01T00:54:56.000Z,0
2023-02-01T00:56:12.000Z,0
2023-02-01T00:57:28.000Z,0
2023-02-01T00:58:45.000Z,0
2023-02-01T01:00:01.000Z,0
2023-02-01T01:01:17.000Z,0
2023-02-01T01:02:32.000Z,0
2023-02-01T01:03:48.000Z,0
2023-02-01T01:05:04.000Z,0
2023-02-01T01:06:20.000Z,0
2023-02-01T01:07:37.000Z,0
2023-02-01T01:08:53.000Z,0
2023-02-01T01:10:09.000Z,0
2023-02-01T01:11:25.000Z,0
2023-02-01T01:12:42.000Z,0
2023-02-01T01:13:58.000Z,0
2023-02-01T01:15:14.000Z,0
2023-02-01T01:16:31.000Z,0
2023-02-01T01:17:47.000Z,0
2023-02-01T01:19:03.000Z,0
2023-02-01T01:20:18.000Z,0
2023-02-01T01:21:35.000Z,0
2023-02-01T01:22:51.000Z,0
2023-02-01T01:24:07.000Z,0
2023-02-01T01:25:24.000Z,0
2023-02-01T01:26:40.000Z,0
2023-02-01T01:27:57.110Z,0
2023-02-01T01:29:12.000Z,0
2023-02-01T01:30:29.000Z,0
2023-02-01T01:31:45.000Z,0
2023-02-01T01:33:01.000Z,0
2023-02-01T01:34:18.000Z,0
2023-02-01T01:35:34.000Z,0
2023-02-01T01:36:49.000Z,0
2023-02-01T01:38:05.000Z,0
2023-02-01T01:39:22.000Z,0
2023-02-01T01:40:38.000Z,0
2023-02-01T01:41:54.000Z,0
2023-02-01T01:43:11.373Z,0
2023-02-01T01:44:27.000Z,0
2023-02-01T01:45:43.000Z,0
2023-02-01T01:47:00.000Z,0
2023-02-01T01:48:16.000Z,0
2023-02-01T01:49:32.000Z,0
2023-02-01T01:50:49.138Z,0
2023-02-01T01:52:05.000Z,0
2023-02-01T01:53:20.000Z,0
2023-02-01T01:54:37.248Z,0
2023-02-01T01:55:53.000Z,0
2023-02-01T01:57:09.000Z,0
2023-02-01T01:58:26.051Z,0
2023-02-01T01:59:42.151Z,0
2023-02-01T02:00:58.000Z,0
2023-02-01T02:02:14.000Z,0
2023-02-01T02:03:30.000Z,0
2023-02-01T02:04:47.000Z,0
2023-02-01T02:06:03.000Z,0
2023-02-01T02:07:19.000Z,0
2023-02-01T02:08:35.000Z,0
2023-02-01T02:09:51.000Z,0
2023-02-01T02:11:07.000Z,0
2023-02-01T02:12:23.000Z,0
2023-02-01T02:13:40.000Z,0
2023-02-01T02:14:56.619Z,0
2023-02-01T02:16:12.885Z,0
2023-02-01T02:17:28.000Z,0
2023-02-01T02:18:45.492Z,0
2023-02-01T02:20:01.000Z,0
2023-02-01T02:21:17.000Z,0
2023-02-01T02:22:34.000Z,0
2023-02-01T02:23:50.000Z,0
2023-02-01T02:25:06.000Z,0
2023-02-01T02:26:21.000Z,0
2023-02-01T02:27:38.000Z,0
2023-02-01T02:28:54.000Z,0
2023-02-01T02:30:10.000Z,0
2023-02-01T02:31:27.000Z,0
2023-02-01T02:32:43.000Z,0
2023-02-01T02:33:59.961Z,0
2023-02-01T02:35:15.000Z,0
2023-02-01T02:36:32.000Z,0
2023-02-01T02:37:48.000Z,0
2023-02-01T02:39:04.000Z,0
2023-02-01T02:40:21.000Z,0
2023-02-01T02:41:37.000Z,0
2023-02-01T02:42:52.000Z,0
2023-02-01T02:44:09.000Z,0
2023-02-01T02:45:25.000Z,0
2023-02-01T02:46:41.000Z,0
2023-02-01T02:47:57.000Z,0
2023-02-01T02:49:14.000Z,0
2023-02-01T02:50:30.000Z,0
2023-02-01T02:51:46.000Z,0
2023-02-01T02:53:03.000Z,0
2023-02-01T02:54:19.000Z,0
2023-02-01T02:55:35.000Z,0
2023-02-01T02:56:51.000Z,0
2023-02-01T02:58:08.000Z,0
2023-02-01T02:59:23.000Z,0
2023-02-01T03:00:39.000Z,0
2023-02-01T03:01:56.000Z,0
2023-02-01T03:03:12.000Z,0
2023-02-01T03:04:28.000Z,0
2023-02-01T03:05:44.000Z,0
2023-02-01T03:07:01.000Z,0
2023-02-01T03:08:17.000Z,0
2023-02-01T03:09:33.000Z,0
2023-02-01T03:10:50.000Z,0
2023-02-01T03:12:06.000Z,0
2023-02-01T03:13:22.000Z,0
2023-02-01T03:14:38.000Z,0
2023-02-01T03:15:54.000Z,0
2023-02-01T03:17:10.000Z,0
2023-02-01T03:18:26.000Z,0
2023-02-01T03:19:43.000Z,0
2023-02-01T03:20:59.627Z,0
2023-02-01T03:22:15.000Z,0
2023-02-01T03:23:31.000Z,0
2023-02-01T03:24:48.534Z,0
2023-02-01T03:26:04.000Z,0
2023-02-01T03:27:20.000Z,0
2023-02-01T03:28:37.000Z,0
2023-02-01T03:29:53.000Z,0
2023-02-01T03:31:09.000Z,0
2023-02-01T03:32:25.000Z,0
2023-02-01T03:33:41.525Z,0
2023-02-01T03:34:57.000Z,0
2023-02-01T03:36:13.000Z,0
2023-02-01T03:37:30.395Z,0
2023-02-01T03:38:46.000Z,0
2023-02-01T03:40:02.000Z,0
2023-02-01T03:41:19.000Z,0
2023-02-01T03:42:35.000Z,0
2023-02-01T03:43:51.000Z,0
2023-02-01T03:45:07.000Z,0
2023-02-01T03:46:24.000Z,0
2023-02-01T03:47:40.000Z,0
2023-02-01T03:48:55.000Z,0
2023-02-01T03:50:12.000Z,0
2023-02-01T03:51:28.000Z,0
2023-02-01T03:52:44.000Z,0
2023-02-01T03:54:00.000Z,0
2023-02-01T03:55:17.000Z,0
2023-02-01T03:56:33.000Z,0
2023-02-01T03:57:49.000Z,0
2023-02-01T03:59:06.000Z,0
2023-02-01T04:00:22.000Z,0
2023-02-01T04:01:38.000Z,0
2023-02-01T04:02:54.000Z,0
2023-02-01T04:04:11.000Z,0
2023-02-01T04:05:26.000Z,0
2023-02-01T04:06:42.000Z,0
2023-02-01T04:07:59.000Z,0
2023-02-01T04:09:15.000Z,0
2023-02-01T04:10:31.910Z,0
2023-02-01T04:11:47.000Z,0
2023-02-01T04:13:04.000Z,0
2023-02-01T04:14:20.000Z,0
2023-02-01T04:15:37.064Z,0
2023-02-01T04:16:53.385Z,0
2023-02-01T04:18:09.000Z,0
2023-02-01T04:19:25.000Z,0
2023-02-01T04:20:41.000Z,0
2023-02-01T04:21:57.000Z,0
2023-02-01T04:23:13.000Z,0
2023-02-01T04:24:29.000Z,0
2023-02-01T04:25:46.000Z,0
2023-02-01T04:27:02.000Z,0
2023-02-01T04:28:18.000Z,0
2023-02-01T04:29:35.245Z,0
2023-02-01T04:30:51.000Z,0
2023-02-01T04:32:07.000Z,0
2023-02-01T04:33:23.000Z,0
2023-02-01T04:34:40.000Z,0
2023-02-01T04:35:56.000Z,0
2023-02-01T04:37:12.000Z,0
2023-02-01T04:38:28.000Z,0
2023-02-01T04:39:44.000Z,0
2023-02-01T04:41:00.000Z,0
2023-02-01T04:42:16.000Z,0
2023-02-01T04:43:33.000Z,0
2023-02-01T04:44:49.000Z,0
2023-02-01T04:46:05.000Z,0
2023-02-01T04:47:22.000Z,0
2023-02-01T04:48:38.000Z,0
2023-02-01T04:49:54.000Z,0
2023-02-01T04:51:11.133Z,0
2023-02-01T04:52:27.000Z,0
2023-02-01T04:53:43.000Z,0
2023-02-01T04:54:58.000Z,0
2023-02-01T04:56:15.000Z,0
2023-02-01T04:57:31.000Z,0
2023-02-01T04:58:47.000Z,0
2023-02-01T05:00:03.000Z,0
2023-02-01T05:01:20.000Z,0
2023-02-01T05:02:36.000Z,0
2023-02-01T05:03:52.000Z,0
2023-02-01T05:05:09.000Z,0
2023-02-01T05:06:25.000Z,0
2023-02-01T05:07:41.000Z,0
2023-02-01T05:08:57.000Z,0
2023-02-01T05:11:30.000Z,0
2023-02-01T05:12:45.000Z,0
2023-02-01T05:14:02.000Z,0
2023-02-01T05:15:18.663Z,0
2023-02-01T05:16:34.000Z,0
2023-02-01T05:17:51.240Z,0
2023-02-01T05:19:06.549Z,0
2023-02-01T05:20:22.000Z,0
2023-02-01T05:21:38.000Z,0
2023-02-01T05:22:55.000Z,0
2023-02-01T05:24:11.000Z,0
2023-02-01T05:25:27.000Z,0
2023-02-01T05:26:44.000Z,0
2023-02-01T05:28:00.000Z,0
2023-02-01T05:29:16.000Z,0
2023-02-01T05:30:32.000Z,0
2023-02-01T05:31:49.422Z,0
2023-02-01T05:33:05.000Z,0
2023-02-01T05:34:21.000Z,0
2023-02-01T05:35:37.000Z,0
2023-02-01T05:36:53.000Z,0
2023-02-01T05:38:09.870Z,0
2023-02-01T05:39:26.148Z,0
2023-02-01T05:40:42.000Z,0
2023-02-01T05:41:58.000Z,0
2023-02-01T05:43:14.000Z,0
2023-02-01T05:44:31.000Z,0
2023-02-01T05:45:47.594Z,0
2023-02-01T05:47:03.891Z,0
2023-02-01T05:48:19.000Z,0
2023-02-01T05:49:36.000Z,0
2023-02-01T05:50:52.000Z,0
2023-02-01T05:52:07.000Z,0
2023-02-01T05:53:24.000Z,0
2023-02-01T05:54:40.000Z,0
2023-02-01T05:55:56.000Z,0
2023-02-01T05:57:12.000Z,0
2023-02-01T05:59:45.000Z,0
2023-02-01T06:01:01.000Z,0
2023-02-01T06:02:18.000Z,0
2023-02-01T06:03:34.000Z,0
2023-02-01T06:04:50.000Z,0
2023-02-01T06:06:06.000Z,0
2023-02-01T06:07:23.000Z,0
2023-02-01T06:08:38.000Z,0
2023-02-01T06:09:55.097Z,0
2023-02-01T06:11:11.000Z,0
2023-02-01T06:12:27.000Z,0
2023-02-01T06:13:43.000Z,0
2023-02-01T06:15:00.000Z,0
2023-02-01T06:16:16.000Z,0
2023-02-01T06:17:32.000Z,0
2023-02-01T06:18:48.000Z,0
2023-02-01T06:20:05.000Z,0
2023-02-01T06:21:21.000Z,0
2023-02-01T06:22:37.000Z,0
2023-02-01T06:23:54.000Z,0
2023-02-01T06:25:09.000Z,0
2023-02-01T06:26:25.000Z,0
2023-02-01T06:27:41.000Z,0
2023-02-01T06:28:58.000Z,0
2023-02-01T06:30:14.000Z,0
2023-02-01T06:31:30.000Z,0
2023-02-01T06:32:47.000Z,0
2023-02-01T06:34:03.000Z,0
2023-02-01T06:35:19.000Z,0
2023-02-01T06:36:35.000Z,1
2023-02-01T06:37:52.000Z,0
2023-02-01T06:39:08.000Z,0
2023-02-01T06:40:24.000Z,1
2023-02-01T06:41:39.000Z,2
2023-02-01T06:42:56.000Z,1
2023-02-01T06:44:12.000Z,1
2023-02-01T06:45:28.898Z,2
2023-02-01T06:46:44.000Z,1
2023-02-01T06:48:01.000Z,1
2023-02-01T06:49:17.000Z,0
2023-02-01T06:50:33.000Z,2
2023-02-01T06:51:49.000Z,3
2023-02-01T06:53:06.000Z,1
2023-02-01T06:54:22.000Z,1
2023-02-01T06:55:38.000Z,2
2023-02-01T06:56:54.000Z,2
2023-02-01T06:58:10.324Z,6
2023-02-01T06:59:26.000Z,6
2023-02-01T07:00:42.762Z,7
2023-02-01T07:01:58.000Z,7
2023-02-01T07:03:14.000Z,10
2023-02-01T07:04:31.000Z,16
2023-02-01T07:05:47.000Z,13
2023-02-01T07:07:03.000Z,7
2023-02-01T07:08:19.000Z,5
2023-02-01T07:09:36.000Z,13
2023-02-01T07:10:52.000Z,16
2023-02-01T07:12:08.000Z,15
2023-02-01T07:13:24.000Z,17
2023-02-01T07:14:40.000Z,21
2023-02-01T07:15:56.000Z,28
2023-02-01T07:17:12.000Z,39
2023-02-01T07:18:28.000Z,44
2023-02-01T07:19:45.000Z,47
2023-02-01T07:21:01.000Z,55
2023-02-01T07:22:17.000Z,51
2023-02-01T07:23:33.000Z,47
2023-02-01T07:24:49.000Z,55
2023-02-01T07:26:06.000Z,55
2023-02-01T07:27:22.715Z,62
2023-02-01T07:28:38.000Z,68
2023-02-01T07:29:54.000Z,73
2023-02-01T07:31:10.000Z,84
2023-02-01T07:32:26.000Z,65
2023-02-01T07:33:42.000Z,46
2023-02-01T07:34:58.000Z,57
2023-02-01T07:36:15.000Z,63
2023-02-01T07:37:31.000Z,73
2023-02-01T07:38:47.000Z,89
2023-02-01T07:40:03.000Z,106
2023-02-01T07:41:20.000Z,130
2023-02-01T07:42:36.000Z,139
2023-02-01T07:43:52.000Z,115
2023-02-01T07:45:08.000Z,168
2023-02-01T07:46:24.000Z,164
2023-02-01T07:47:41.000Z,201
2023-02-01T07:48:57.000Z,257
2023-02-01T07:50:12.000Z,211
2023-02-01T07:52:45.000Z,341
2023-02-01T07:54:01.000Z,255
2023-02-01T07:55:17.861Z,316
2023-02-01T07:56:33.000Z,482
2023-02-01T07:57:50.000Z,573
2023-02-01T07:59:06.000Z,392
2023-02-01T08:00:22.000Z,372
2023-02-01T08:01:39.058Z,378
2023-02-01T08:02:55.000Z,414
2023-02-01T08:05:27.000Z,418
2023-02-01T08:06:42.000Z,475
2023-02-01T08:07:58.000Z,532
2023-02-01T08:09:15.000Z,460
2023-02-01T08:10:31.000Z,545
2023-02-01T08:11:47.000Z,519
2023-02-01T08:13:03.000Z,559
2023-02-01T08:14:20.000Z,355
2023-02-01T08:15:36.000Z,426
2023-02-01T08:16:52.000Z,330
2023-02-01T08:18:08.000Z,303
2023-02-01T08:19:25.000Z,469
2023-02-01T08:20:41.000Z,423
2023-02-01T08:21:57.000Z,592
2023-02-01T08:23:12.000Z,450
2023-02-01T08:24:29.000Z,424
2023-02-01T08:25:45.000Z,458
2023-02-01T08:27:01.000Z,461
2023-02-01T08:28:17.000Z,378
2023-02-01T08:30:50.000Z,425
2023-02-01T08:32:06.000Z,486
2023-02-01T08:33:22.000Z,390
2023-02-01T08:34:38.000Z,362
2023-02-01T08:35:55.397Z,394
2023-02-01T08:37:11.000Z,409
2023-02-01T08:38:27.000Z,407
2023-02-01T08:39:42.000Z,345
2023-02-01T08:40:59.000Z,274
2023-02-01T08:42:15.000Z,431
2023-02-01T08:43:31.000Z,392
2023-02-01T08:44:47.000Z,406
2023-02-01T08:46:04.000Z,322
2023-02-01T08:47:20.000Z,367
2023-02-01T08:48:36.000Z,321
2023-02-01T08:49:52.000Z,472
2023-02-01T08:51:08.000Z,466
2023-02-01T08:52:25.000Z,393
2023-02-01T08:53:41.000Z,391
2023-02-01T08:54:57.904Z,427
2023-02-01T08:56:12.000Z,421
2023-02-01T08:57:29.000Z,409
2023-02-01T08:58:45.000Z,406
2023-02-01T09:00:01.000Z,483
2023-02-01T09:01:18.105Z,385
2023-02-01T09:02:34.000Z,545
2023-02-01T09:03:50.000Z,594
2023-02-01T09:05:06.000Z,530
2023-02-01T09:06:22.000Z,504
2023-02-01T09:07:39.000Z,510
2023-02-01T09:08:55.000Z,559
2023-02-01T09:10:11.000Z,396
2023-02-01T09:11:27.000Z,575
2023-02-01T09:12:42.000Z,676
2023-02-01T09:13:59.000Z,676
2023-02-01T09:15:15.000Z,1233
2023-02-01T09:16:31.000Z,1182
2023-02-01T09:17:47.000Z,954
2023-02-01T09:19:04.000Z,886
2023-02-01T09:21:36.850Z,660
2023-02-01T09:22:52.000Z,581
2023-02-01T09:24:09.000Z,561
2023-02-01T09:25:25.000Z,577
2023-02-01T09:26:41.000Z,923
2023-02-01T09:27:57.000Z,650
2023-02-01T09:29:13.000Z,696
2023-02-01T09:30:29.000Z,835
2023-02-01T09:31:45.000Z,685
2023-02-01T09:33:01.946Z,649
2023-02-01T09:34:16.000Z,1069
2023-02-01T09:35:33.000Z,1452
2023-02-01T09:36:49.000Z,934
2023-02-01T09:38:05.000Z,864
2023-02-01T09:39:21.000Z,1185
2023-02-01T09:40:38.000Z,848
2023-02-01T09:41:54.000Z,1043
2023-02-01T09:43:09.000Z,2881
2023-02-01T09:44:24.000Z,1699
2023-02-01T09:45:41.000Z,2087
2023-02-01T09:46:57.000Z,2351
2023-02-01T09:48:13.000Z,959
2023-02-01T09:49:29.000Z,4433
2023-02-01T09:50:46.000Z,1293
2023-02-01T09:52:02.000Z,8770
2023-02-01T09:53:18.000Z,5775
2023-02-01T09:54:34.000Z,2089
2023-02-01T09:55:50.000Z,1465
2023-02-01T09:57:07.000Z,7606
2023-02-01T09:59:39.000Z,4964
2023-02-01T10:00:54.000Z,1697
2023-02-01T10:02:11.000Z,2268
2023-02-01T10:03:27.000Z,5076
2023-02-01T10:04:42.000Z,1914
2023-02-01T10:05:57.000Z,3271
2023-02-01T10:07:14.000Z,1855
2023-02-01T10:08:30.000Z,1166
2023-02-01T10:09:46.000Z,679
2023-02-01T10:11:03.078Z,984
2023-02-01T10:12:19.340Z,1181
2023-02-01T10:13:35.000Z,890
2023-02-01T10:14:51.778Z,1638
2023-02-01T10:16:07.000Z,2200
2023-02-01T10:17:24.000Z,1659
2023-02-01T10:18:40.000Z,1002
2023-02-01T10:19:56.000Z,1651
2023-02-01T10:21:12.000Z,1877
2023-02-01T10:22:28.212Z,2370
2023-02-01T10:23:44.000Z,1658
2023-02-01T10:25:00.000Z,1949
2023-02-01T10:26:16.000Z,1310
2023-02-01T10:27:32.000Z,1218
2023-02-01T10:28:49.000Z,1427
2023-02-01T10:30:05.000Z,1018
2023-02-01T10:31:21.000Z,906
2023-02-01T10:32:37.000Z,870
2023-02-01T10:33:54.000Z,1125
2023-02-01T10:35:10.000Z,1951
2023-02-01T10:36:26.000Z,927
2023-02-01T10:37:42.000Z,1125
2023-02-01T10:38:58.000Z,2352
2023-02-01T10:40:14.000Z,1488
2023-02-01T10:41:30.000Z,2978
2023-02-01T10:42:46.000Z,2213
2023-02-01T10:44:02.000Z,1851
2023-02-01T10:45:19.000Z,1758
2023-02-01T10:46:35.000Z,1587
2023-02-01T10:47:51.000Z,1575
2023-02-01T10:49:08.116Z,2126
2023-02-01T10:50:24.359Z,1736
2023-02-01T10:51:40.000Z,1613
2023-02-01T10:52:56.000Z,1028
2023-02-01T10:54:13.081Z,951
2023-02-01T10:55:28.000Z,1137
2023-02-01T10:56:44.000Z,1096
2023-02-01T10:58:00.000Z,1766
2023-02-01T10:59:16.000Z,2249
2023-02-01T11:01:49.000Z,1732
2023-02-01T11:03:05.000Z,1493
2023-02-01T11:04:21.000Z,1455
2023-02-01T11:05:37.000Z,1124
2023-02-01T11:06:54.000Z,1170
2023-02-01T11:08:10.000Z,1069
2023-02-01T11:09:26.000Z,809
2023-02-01T11:10:42.000Z,905
2023-02-01T11:11:58.000Z,855
2023-02-01T11:13:14.600Z,922
2023-02-01T11:14:30.847Z,916
2023-02-01T11:15:46.000Z,1082
2023-02-01T11:17:03.000Z,786
2023-02-01T11:18:19.000Z,740
2023-02-01T11:19:35.000Z,816
2023-02-01T11:20:52.001Z,910
2023-02-01T11:22:07.000Z,814
2023-02-01T11:23:24.000Z,843
2023-02-01T11:24:40.000Z,866
2023-02-01T11:25:56.000Z,775
2023-02-01T11:27:13.182Z,681
2023-02-01T11:28:28.000Z,589
2023-02-01T11:29:44.000Z,599
2023-02-01T11:31:00.000Z,670
2023-02-01T11:32:16.000Z,463
2023-02-01T11:33:33.000Z,324
2023-02-01T11:34:49.000Z,445
2023-02-01T11:36:05.000Z,529
2023-02-01T11:37:21.000Z,463
2023-02-01T11:38:38.000Z,366
2023-02-01T11:41:10.759Z,582
2023-02-01T11:42:26.000Z,650
2023-02-01T11:43:42.000Z,478
2023-02-01T11:44:58.000Z,277
2023-02-01T11:46:14.000Z,308
2023-02-01T11:47:30.000Z,448
2023-02-01T11:48:46.000Z,634
2023-02-01T11:50:03.000Z,478
2023-02-01T11:51:19.000Z,287
2023-02-01T11:52:35.000Z,313
2023-02-01T11:53:51.000Z,351
2023-02-01T11:55:08.000Z,550
2023-02-01T11:56:24.000Z,663
2023-02-01T11:57:40.000Z,651
2023-02-01T11:58:57.036Z,485
2023-02-01T12:00:13.000Z,276
2023-02-01T12:01:28.000Z,391
2023-02-01T12:02:44.000Z,346
2023-02-01T12:04:00.000Z,266
2023-02-01T12:05:16.000Z,350
2023-02-01T12:06:33.000Z,676
2023-02-01T12:07:49.000Z,855
2023-02-01T12:09:05.000Z,633
2023-02-01T12:10:21.000Z,427
2023-02-01T12:11:38.000Z,339
2023-02-01T12:12:54.000Z,456
2023-02-01T12:14:10.000Z,396
2023-02-01T12:15:26.000Z,344
2023-02-01T12:16:43.000Z,510
2023-02-01T12:17:58.000Z,422
2023-02-01T12:19:14.000Z,533
2023-02-01T12:20:30.000Z,544
2023-02-01T12:21:47.000Z,508
2023-02-01T12:23:03.000Z,468
2023-02-01T12:24:19.000Z,462
2023-02-01T12:25:35.000Z,433
2023-02-01T12:26:52.198Z,244
2023-02-01T12:28:08.000Z,345
2023-02-01T12:29:24.000Z,297
2023-02-01T12:31:56.000Z,635
2023-02-01T12:33:13.000Z,383
2023-02-01T12:34:28.000Z,1673
2023-02-01T12:35:44.000Z,915
2023-02-01T12:37:00.000Z,547
2023-02-01T12:38:17.000Z,542
2023-02-01T12:39:33.000Z,2197
2023-02-01T12:40:49.000Z,2682
2023-02-01T12:42:05.000Z,455
2023-02-01T12:43:22.000Z,3420
2023-02-01T12:44:38.489Z,2259
2023-02-01T12:45:54.742Z,1614
2023-02-01T12:47:10.967Z,1336
2023-02-01T12:48:26.000Z,473
2023-02-01T12:49:43.440Z,1591
2023-02-01T12:50:58.000Z,1192
2023-02-01T12:53:30.000Z,1140
2023-02-01T12:54:47.365Z,988
2023-02-01T12:56:03.000Z,697
2023-02-01T12:57:19.000Z,471
2023-02-01T12:58:35.000Z,418
2023-02-01T12:59:52.000Z,362
2023-02-01T13:01:08.000Z,471
2023-02-01T13:02:24.000Z,236
2023-02-01T13:03:40.000Z,402
2023-02-01T13:04:57.234Z,763
2023-02-01T13:06:13.000Z,776
2023-02-01T13:07:28.000Z,453
2023-02-01T13:10:00.000Z,653
2023-02-01T13:11:17.418Z,1094
2023-02-01T13:12:33.664Z,1730
2023-02-01T13:13:49.000Z,2625
2023-02-01T13:15:05.000Z,1879
2023-02-01T13:16:22.000Z,1199
2023-02-01T13:17:38.588Z,1942
2023-02-01T13:18:54.000Z,2581
2023-02-01T13:20:10.000Z,1698
2023-02-01T13:21:27.000Z,1872
2023-02-01T13:22:43.000Z,645
2023-02-01T13:23:58.000Z,1684
2023-02-01T13:25:14.000Z,1955
2023-02-01T13:26:31.000Z,1199
2023-02-01T13:27:47.000Z,1426
2023-02-01T13:29:03.000Z,904
2023-02-01T13:30:19.000Z,750
2023-02-01T13:31:35.000Z,498
2023-02-01T13:34:08.000Z,2173
2023-02-01T13:35:24.000Z,1610
2023-02-01T13:36:40.000Z,1045
2023-02-01T13:37:57.000Z,7326
2023-02-01T13:39:13.000Z,2797
2023-02-01T13:40:28.000Z,3523
2023-02-01T13:41:44.000Z,3320
2023-02-01T13:43:01.000Z,2080
2023-02-01T13:44:17.000Z,1886
2023-02-01T13:45:33.000Z,1555
2023-02-01T13:46:49.000Z,521
2023-02-01T13:48:05.000Z,2116
2023-02-01T13:49:21.000Z,2435
2023-02-01T13:50:37.000Z,1496
2023-02-01T13:51:53.000Z,2564
2023-02-01T13:53:09.000Z,2802
2023-02-01T13:54:26.000Z,2252
2023-02-01T13:55:42.000Z,3404
2023-02-01T13:56:58.000Z,4024
2023-02-01T13:58:14.000Z,4163
2023-02-01T14:00:47.000Z,3920
2023-02-01T14:02:03.000Z,4160
2023-02-01T14:03:19.000Z,3761
2023-02-01T14:04:36.000Z,3250
2023-02-01T14:05:51.000Z,3937
2023-02-01T14:07:07.000Z,2277
2023-02-01T14:08:23.000Z,3362
2023-02-01T14:09:39.000Z,4732
2023-02-01T14:10:56.000Z,3640
2023-02-01T14:12:12.000Z,2359
2023-02-01T14:13:28.000Z,1512
2023-02-01T14:14:44.000Z,1220
2023-02-01T14:16:01.000Z,814
2023-02-01T14:17:17.000Z,1957
2023-02-01T14:18:33.000Z,2785
2023-02-01T14:19:49.000Z,1717
2023-02-01T14:21:06.000Z,1119
2023-02-01T14:22:21.000Z,734
2023-02-01T14:23:37.000Z,594
2023-02-01T14:24:53.000Z,492
2023-02-01T14:26:10.000Z,988
2023-02-01T14:27:26.000Z,902
2023-02-01T14:28:42.000Z,249
2023-02-01T14:29:58.000Z,538
2023-02-01T14:31:14.000Z,1254
2023-02-01T14:32:31.000Z,944
2023-02-01T14:33:47.000Z,845
2023-02-01T14:35:03.000Z,608
2023-02-01T14:36:19.000Z,360
2023-02-01T14:38:52.000Z,536
2023-02-01T14:40:07.000Z,811
2023-02-01T14:41:23.000Z,485
2023-02-01T14:42:40.000Z,633
2023-02-01T14:43:56.000Z,722
2023-02-01T14:45:12.000Z,525
2023-02-01T14:46:28.000Z,597
2023-02-01T14:47:45.000Z,1101
2023-02-01T14:49:01.000Z,1043
2023-02-01T14:51:33.000Z,248
2023-02-01T14:52:49.000Z,210
2023-02-01T14:54:06.000Z,478
2023-02-01T14:55:22.000Z,1386
2023-02-01T14:56:37.000Z,2425
2023-02-01T14:57:53.000Z,2290
2023-02-01T14:59:10.000Z,1596
2023-02-01T15:00:26.000Z,752
2023-02-01T15:01:42.000Z,605
2023-02-01T15:02:58.000Z,992
2023-02-01T15:04:15.000Z,1012
2023-02-01T15:05:31.578Z,798
2023-02-01T15:06:47.000Z,431
2023-02-01T15:08:03.000Z,645
2023-02-01T15:09:20.000Z,640
2023-02-01T15:10:36.000Z,386
2023-02-01T15:11:52.000Z,258
2023-02-01T15:13:08.000Z,244
2023-02-01T15:14:23.000Z,415
2023-02-01T15:15:40.000Z,757
2023-02-01T15:16:56.684Z,790
2023-02-01T15:18:12.000Z,708
2023-02-01T15:20:45.000Z,249
2023-02-01T15:22:01.000Z,458
2023-02-01T15:23:17.000Z,953
2023-02-01T15:24:33.000Z,1524
2023-02-01T15:25:50.303Z,706
2023-02-01T15:27:06.000Z,361
2023-02-01T15:29:38.000Z,1061
2023-02-01T15:30:54.000Z,697
2023-02-01T15:32:10.000Z,576
2023-02-01T15:33:26.000Z,448
2023-02-01T15:34:42.000Z,563
2023-02-01T15:35:58.000Z,482
2023-02-01T15:37:15.000Z,603
2023-02-01T15:38:31.000Z,734
2023-02-01T15:39:47.000Z,575
2023-02-01T15:41:03.000Z,613
2023-02-01T15:42:20.000Z,733
2023-02-01T15:43:36.000Z,726
2023-02-01T15:44:52.000Z,663
2023-02-01T15:46:09.050Z,581
2023-02-01T15:47:24.000Z,415
2023-02-01T15:48:40.000Z,240
2023-02-01T15:49:56.000Z,292
2023-02-01T15:51:12.000Z,355
2023-02-01T15:52:29.000Z,381
2023-02-01T15:53:45.000Z,335
2023-02-01T15:55:01.000Z,209
2023-02-01T15:56:17.000Z,134
2023-02-01T15:57:33.000Z,125
2023-02-01T15:58:50.000Z,204
2023-02-01T16:00:06.000Z,211
2023-02-01T16:01:22.000Z,240
2023-02-01T16:02:38.000Z,275
2023-02-01T16:05:10.617Z,167
2023-02-01T16:06:26.000Z,129
2023-02-01T16:07:43.084Z,98
2023-02-01T16:08:59.000Z,74
2023-02-01T16:10:15.000Z,61
2023-02-01T16:11:31.000Z,52
2023-02-01T16:12:47.000Z,45
2023-02-01T16:14:03.000Z,39
2023-02-01T16:15:20.000Z,37
2023-02-01T16:16:36.000Z,29
2023-02-01T16:17:52.000Z,31
2023-02-01T16:20:25.000Z,34
2023-02-01T16:21:40.930Z,39
2023-02-01T16:22:56.000Z,34
2023-02-01T16:24:12.000Z,29
2023-02-01T16:25:29.000Z,26
2023-02-01T16:26:45.000Z,20
2023-02-01T16:28:01.000Z,16
2023-02-01T16:29:17.000Z,13
2023-02-01T16:30:34.000Z,9
2023-02-01T16:31:50.000Z,7
2023-02-01T16:33:06.000Z,5
2023-02-01T16:34:22.000Z,5
2023-02-01T16:35:38.000Z,2
2023-02-01T16:36:55.000Z,2
2023-02-01T16:38:10.000Z,2
2023-02-01T16:39:26.000Z,1
2023-02-01T16:40:42.000Z,1
2023-02-01T16:41:59.000Z,0
2023-02-01T16:43:15.000Z,0
2023-02-01T16:44:31.000Z,0
2023-02-01T16:45:48.000Z,0
2023-02-01T16:47:04.000Z,0
2023-02-01T16:48:20.884Z,0
2023-02-01T16:49:36.000Z,0
2023-02-01T16:50:53.000Z,0
2023-02-01T16:52:09.000Z,0
2023-02-01T16:53:25.000Z,0
2023-02-01T16:54:41.000Z,0
2023-02-01T16:55:57.000Z,0
2023-02-01T16:57:13.000Z,0
2023-02-01T16:58:29.000Z,0
2023-02-01T16:59:46.000Z,0
2023-02-01T17:01:02.000Z,0
2023-02-01T17:02:18.000Z,0
2023-02-01T17:03:35.000Z,0
2023-02-01T17:04:51.000Z,0
2023-02-01T17:06:07.000Z,0
2023-02-01T17:07:23.000Z,0
2023-02-01T17:08:40.000Z,0
2023-02-01T17:09:56.832Z,0
2023-02-01T17:11:11.000Z,0
2023-02-01T17:12:28.000Z,0
2023-02-01T17:13:44.000Z,0
2023-02-01T17:15:00.000Z,0
2023-02-01T17:16:17.000Z,0
2023-02-01T17:17:33.000Z,0
2023-02-01T17:18:49.000Z,0
2023-02-01T17:20:05.000Z,0
2023-02-01T17:21:22.000Z,0
2023-02-01T17:22:38.000Z,0
2023-02-01T17:23:54.000Z,0
2023-02-01T17:25:11.000Z,0
2023-02-01T17:26:27.000Z,0
2023-02-01T17:27:42.000Z,0
2023-02-01T17:28:58.000Z,0
2023-02-01T17:30:15.000Z,0
2023-02-01T17:31:31.000Z,0
2023-02-01T17:32:47.000Z,0
2023-02-01T17:34:04.305Z,0
2023-02-01T17:35:20.000Z,0
2023-02-01T17:36:36.000Z,0
2023-02-01T17:37:52.000Z,0
2023-02-01T17:39:09.000Z,0
2023-02-01T17:40:25.000Z,0
2023-02-01T17:41:41.000Z,0
2023-02-01T17:42:58.000Z,0
2023-02-01T17:44:13.000Z,0
2023-02-01T17:45:29.000Z,0
2023-02-01T17:46:45.000Z,0
2023-02-01T17:48:02.000Z,0
2023-02-01T17:49:18.000Z,0
2023-02-01T17:50:34.000Z,0
2023-02-01T17:51:51.000Z,0
2023-02-01T17:53:07.000Z,0
2023-02-01T17:54:23.000Z,0
2023-02-01T17:55:39.000Z,0
2023-02-01T17:56:56.000Z,0
2023-02-01T17:58:12.000Z,0
2023-02-01T17:59:28.000Z,0
2023-02-01T18:00:44.391Z,0
2023-02-01T18:02:00.000Z,0
2023-02-01T18:03:16.000Z,0
2023-02-01T18:04:32.000Z,0
2023-02-01T18:05:48.000Z,0
2023-02-01T18:07:04.832Z,0
2023-02-01T18:08:20.000Z,0
2023-02-01T18:09:37.000Z,0
2023-02-01T18:10:53.000Z,0
2023-02-01T18:12:09.000Z,0
2023-02-01T18:13:26.000Z,0
2023-02-01T18:14:42.566Z,0
2023-02-01T18:15:58.000Z,0
2023-02-01T18:17:14.000Z,0
2023-02-01T18:18:31.000Z,0
2023-02-01T18:19:47.000Z,0
2023-02-01T18:21:02.000Z,0
2023-02-01T18:22:19.000Z,0
2023-02-01T18:23:35.000Z,0
2023-02-01T18:24:51.000Z,0
2023-02-01T18:26:07.000Z,0
2023-02-01T18:27:24.000Z,0